sensor_id;sensor_type;location;lat;lon;timestamp;pressure;altitude;pressure_sealevel;temperature;humidity
41306;BME280;27051;50.376;19.152;2023-04-15T00:00:42;96831.48;;;11.28;63.22
41306;BME280;27051;50.376;19.152;2023-04-15T00:03:15;96831.89;;;11.18;63.89
41306;BME280;27051;50.376;19.152;2023-04-15T00:05:41;96844.22;;;11.15;63.56
41306;BME280;27051;50.376;19.152;2023-04-15T00:08:08;96842.91;;;11.12;63.66
41306;BME280;27051;50.376;19.152;2023-04-15T00:10:35;96846.23;;;11.15;63.89
41306;BME280;27051;50.376;19.152;2023-04-15T00:13:02;96852.45;;;11.16;63.69
41306;BME280;27051;50.376;19.152;2023-04-15T00:15:28;96847.45;;;11.15;63.82
41306;BME280;27051;50.376;19.152;2023-04-15T00:17:55;96848.91;;;11.14;63.70
41306;BME280;27051;50.376;19.152;2023-04-15T00:20:22;96843.88;;;11.09;63.73
41306;BME280;27051;50.376;19.152;2023-04-15T00:22:50;96851.71;;;11.09;63.79
41306;BME280;27051;50.376;19.152;2023-04-15T00:25:16;96849.23;;;11.06;63.84
41306;BME280;27051;50.376;19.152;2023-04-15T00:27:42;96850.42;;;11.12;63.92
41306;BME280;27051;50.376;19.152;2023-04-15T00:30:09;96848.67;;;11.13;63.84
41306;BME280;27051;50.376;19.152;2023-04-15T00:32:36;96855.59;;;11.14;63.88
41306;BME280;27051;50.376;19.152;2023-04-15T00:35:02;96859.56;;;11.11;64.04
41306;BME280;27051;50.376;19.152;2023-04-15T00:37:29;96857.46;;;11.08;63.81
41306;BME280;27051;50.376;19.152;2023-04-15T00:39:56;96849.80;;;10.99;64.18
41306;BME280;27051;50.376;19.152;2023-04-15T00:42:22;96859.75;;;10.95;64.32
41306;BME280;27051;50.376;19.152;2023-04-15T00:44:50;96870.63;;;10.92;64.42
41306;BME280;27051;50.376;19.152;2023-04-15T00:47:17;96878.40;;;10.95;64.56
41306;BME280;27051;50.376;19.152;2023-04-15T00:49:44;96879.76;;;10.92;64.94
41306;BME280;27051;50.376;19.152;2023-04-15T00:52:10;96881.21;;;10.91;64.99
41306;BME280;27051;50.376;19.152;2023-04-15T00:54:37;96885.64;;;10.88;64.86
41306;BME280;27051;50.376;19.152;2023-04-15T00:57:05;96888.09;;;10.80;65.05
41306;BME280;27051;50.376;19.152;2023-04-15T00:59:34;96884.23;;;10.77;64.90
41306;BME280;27051;50.376;19.152;2023-04-15T01:02:02;96890.40;;;10.80;65.07
41306;BME280;27051;50.376;19.152;2023-04-15T01:04:31;96897.14;;;10.85;65.06
41306;BME280;27051;50.376;19.152;2023-04-15T01:06:58;96887.48;;;10.88;64.97
41306;BME280;27051;50.376;19.152;2023-04-15T01:09:24;96893.89;;;10.92;64.85
41306;BME280;27051;50.376;19.152;2023-04-15T01:11:51;96890.82;;;10.93;64.78
41306;BME280;27051;50.376;19.152;2023-04-15T01:14:18;96892.67;;;10.94;64.69
41306;BME280;27051;50.376;19.152;2023-04-15T01:16:44;96883.17;;;10.88;64.85
41306;BME280;27051;50.376;19.152;2023-04-15T01:19:13;96880.48;;;10.87;64.84
41306;BME280;27051;50.376;19.152;2023-04-15T01:21:42;96877.98;;;10.90;64.87
41306;BME280;27051;50.376;19.152;2023-04-15T01:24:09;96883.95;;;10.96;64.77
41306;BME280;27051;50.376;19.152;2023-04-15T01:26:37;96887.08;;;10.96;64.88
41306;BME280;27051;50.376;19.152;2023-04-15T01:29:05;96883.52;;;10.99;64.86
41306;BME280;27051;50.376;19.152;2023-04-15T01:31:33;96884.78;;;11.04;64.78
41306;BME280;27051;50.376;19.152;2023-04-15T01:34:00;96884.64;;;11.05;64.67
41306;BME280;27051;50.376;19.152;2023-04-15T01:36:27;96882.20;;;11.00;64.72
41306;BME280;27051;50.376;19.152;2023-04-15T01:38:55;96891.27;;;10.99;64.77
41306;BME280;27051;50.376;19.152;2023-04-15T01:41:26;96891.85;;;11.04;64.64
41306;BME280;27051;50.376;19.152;2023-04-15T01:43:54;96899.16;;;11.14;64.67
41306;BME280;27051;50.376;19.152;2023-04-15T01:46:22;96892.20;;;11.19;64.60
41306;BME280;27051;50.376;19.152;2023-04-15T01:48:49;96888.16;;;11.23;64.53
41306;BME280;27051;50.376;19.152;2023-04-15T01:51:15;96888.24;;;11.24;64.45
41306;BME280;27051;50.376;19.152;2023-04-15T01:53:42;96885.34;;;11.25;64.42
41306;BME280;27051;50.376;19.152;2023-04-15T01:56:08;96888.69;;;11.23;64.39
41306;BME280;27051;50.376;19.152;2023-04-15T01:58:35;96886.75;;;11.20;64.43
41306;BME280;27051;50.376;19.152;2023-04-15T02:01:03;96887.66;;;11.19;64.40
41306;BME280;27051;50.376;19.152;2023-04-15T02:03:30;96893.92;;;11.13;64.51
41306;BME280;27051;50.376;19.152;2023-04-15T02:05:58;96901.88;;;11.09;64.38
41306;BME280;27051;50.376;19.152;2023-04-15T02:08:25;96913.02;;;11.07;64.50
41306;BME280;27051;50.376;19.152;2023-04-15T02:10:52;96919.23;;;11.09;64.43
41306;BME280;27051;50.376;19.152;2023-04-15T02:13:19;96923.39;;;11.10;64.53
41306;BME280;27051;50.376;19.152;2023-04-15T02:15:48;96927.17;;;11.11;64.63
41306;BME280;27051;50.376;19.152;2023-04-15T02:18:16;96927.24;;;11.11;64.53
41306;BME280;27051;50.376;19.152;2023-04-15T02:20:43;96926.62;;;11.09;64.61
41306;BME280;27051;50.376;19.152;2023-04-15T02:23:09;96931.45;;;11.08;64.54
41306;BME280;27051;50.376;19.152;2023-04-15T02:25:36;96924.12;;;11.04;64.59
41306;BME280;27051;50.376;19.152;2023-04-15T02:28:07;96927.64;;;10.96;64.68
41306;BME280;27051;50.376;19.152;2023-04-15T02:30:34;96927.02;;;10.95;64.61
41306;BME280;27051;50.376;19.152;2023-04-15T02:33:02;96927.33;;;10.93;64.59
41306;BME280;27051;50.376;19.152;2023-04-15T02:35:28;96927.79;;;10.95;64.55
41306;BME280;27051;50.376;19.152;2023-04-15T02:37:55;96928.51;;;10.91;64.72
41306;BME280;27051;50.376;19.152;2023-04-15T02:40:21;96925.04;;;10.90;64.65
41306;BME280;27051;50.376;19.152;2023-04-15T02:42:48;96926.40;;;10.87;64.54
41306;BME280;27051;50.376;19.152;2023-04-15T02:45:14;96929.45;;;10.84;64.50
41306;BME280;27051;50.376;19.152;2023-04-15T02:47:41;96930.41;;;10.81;64.65
41306;BME280;27051;50.376;19.152;2023-04-15T02:50:11;96933.64;;;10.81;64.51
41306;BME280;27051;50.376;19.152;2023-04-15T02:52:40;96941.12;;;10.76;64.49
41306;BME280;27051;50.376;19.152;2023-04-15T02:55:10;96944.52;;;10.64;64.54
41306;BME280;27051;50.376;19.152;2023-04-15T02:57:37;96949.46;;;10.60;64.57
41306;BME280;27051;50.376;19.152;2023-04-15T03:00:05;96949.24;;;10.55;64.62
41306;BME280;27051;50.376;19.152;2023-04-15T03:02:36;96954.58;;;10.57;64.50
41306;BME280;27051;50.376;19.152;2023-04-15T03:05:04;96956.38;;;10.53;64.65
41306;BME280;27051;50.376;19.152;2023-04-15T03:07:32;96958.52;;;10.53;64.67
41306;BME280;27051;50.376;19.152;2023-04-15T03:10:00;96962.99;;;10.54;64.74
41306;BME280;27051;50.376;19.152;2023-04-15T03:12:26;96969.42;;;10.53;64.67
41306;BME280;27051;50.376;19.152;2023-04-15T03:14:53;96974.02;;;10.58;64.59
41306;BME280;27051;50.376;19.152;2023-04-15T03:17:20;96982.56;;;10.54;64.28
41306;BME280;27051;50.376;19.152;2023-04-15T03:19:46;96985.51;;;10.45;64.42
41306;BME280;27051;50.376;19.152;2023-04-15T03:22:13;96979.60;;;10.33;64.54
41306;BME280;27051;50.376;19.152;2023-04-15T03:24:40;96973.77;;;10.27;64.55
41306;BME280;27051;50.376;19.152;2023-04-15T03:27:06;96974.11;;;10.26;64.81
41306;BME280;27051;50.376;19.152;2023-04-15T03:29:34;96975.66;;;10.37;64.91
41306;BME280;27051;50.376;19.152;2023-04-15T03:32:01;96975.79;;;10.40;64.75
41306;BME280;27051;50.376;19.152;2023-04-15T03:34:27;96978.27;;;10.43;64.71
41306;BME280;27051;50.376;19.152;2023-04-15T03:36:55;96980.82;;;10.39;64.63
41306;BME280;27051;50.376;19.152;2023-04-15T03:39:22;96982.92;;;10.35;64.71
41306;BME280;27051;50.376;19.152;2023-04-15T03:41:49;96981.77;;;10.30;64.46
41306;BME280;27051;50.376;19.152;2023-04-15T03:44:29;96988.80;;;10.22;64.47
41306;BME280;27051;50.376;19.152;2023-04-15T03:46:55;96990.52;;;10.08;64.80
41306;BME280;27051;50.376;19.152;2023-04-15T03:49:22;96990.94;;;10.00;64.71
41306;BME280;27051;50.376;19.152;2023-04-15T03:51:49;96994.91;;;9.99;64.87
41306;BME280;27051;50.376;19.152;2023-04-15T03:54:16;97006.17;;;10.03;64.99
41306;BME280;27051;50.376;19.152;2023-04-15T03:56:42;97009.07;;;10.03;64.85
41306;BME280;27051;50.376;19.152;2023-04-15T03:59:08;97009.20;;;10.06;64.95
41306;BME280;27051;50.376;19.152;2023-04-15T04:01:35;97015.23;;;10.10;64.71
41306;BME280;27051;50.376;19.152;2023-04-15T04:04:02;97014.52;;;10.07;64.57
41306;BME280;27051;50.376;19.152;2023-04-15T04:06:28;97020.02;;;10.07;64.61
41306;BME280;27051;50.376;19.152;2023-04-15T04:08:55;97021.08;;;10.05;64.45
41306;BME280;27051;50.376;19.152;2023-04-15T04:11:21;97020.06;;;10.04;64.36
41306;BME280;27051;50.376;19.152;2023-04-15T04:14:00;97009.34;;;9.95;64.33
41306;BME280;27051;50.376;19.152;2023-04-15T04:16:27;97013.34;;;9.90;64.24
41306;BME280;27051;50.376;19.152;2023-04-15T04:18:53;97015.34;;;9.91;64.14
41306;BME280;27051;50.376;19.152;2023-04-15T04:21:20;97024.48;;;9.97;63.92
41306;BME280;27051;50.376;19.152;2023-04-15T04:23:47;97031.13;;;10.00;63.98
41306;BME280;27051;50.376;19.152;2023-04-15T04:26:13;97033.99;;;10.02;63.90
41306;BME280;27051;50.376;19.152;2023-04-15T04:28:40;97037.23;;;10.03;63.86
41306;BME280;27051;50.376;19.152;2023-04-15T04:31:07;97035.90;;;10.00;63.93
41306;BME280;27051;50.376;19.152;2023-04-15T04:33:33;97041.70;;;9.99;63.82
41306;BME280;27051;50.376;19.152;2023-04-15T04:36:00;97056.97;;;9.99;63.62
41306;BME280;27051;50.376;19.152;2023-04-15T04:38:27;97054.27;;;10.00;63.61
41306;BME280;27051;50.376;19.152;2023-04-15T04:40:55;97056.71;;;10.02;63.54
41306;BME280;27051;50.376;19.152;2023-04-15T04:43:21;97051.91;;;10.05;63.43
41306;BME280;27051;50.376;19.152;2023-04-15T04:45:48;97055.70;;;10.07;63.35
41306;BME280;27051;50.376;19.152;2023-04-15T04:48:14;97064.90;;;10.02;63.34
41306;BME280;27051;50.376;19.152;2023-04-15T04:50:44;97070.61;;;10.04;63.28
41306;BME280;27051;50.376;19.152;2023-04-15T04:53:10;97065.58;;;10.06;63.11
41306;BME280;27051;50.376;19.152;2023-04-15T04:55:37;97067.73;;;10.15;63.00
41306;BME280;27051;50.376;19.152;2023-04-15T04:58:03;97062.13;;;10.21;63.10
41306;BME280;27051;50.376;19.152;2023-04-15T05:00:30;97058.16;;;10.32;63.26
41306;BME280;27051;50.376;19.152;2023-04-15T05:02:56;97057.45;;;10.41;63.20
41306;BME280;27051;50.376;19.152;2023-04-15T05:05:23;97056.48;;;10.44;63.00
41306;BME280;27051;50.376;19.152;2023-04-15T05:07:50;97059.98;;;10.47;62.78
41306;BME280;27051;50.376;19.152;2023-04-15T05:10:16;97062.52;;;10.52;62.83
41306;BME280;27051;50.376;19.152;2023-04-15T05:12:43;97060.04;;;10.56;62.90
41306;BME280;27051;50.376;19.152;2023-04-15T05:15:10;97057.40;;;10.54;62.74
41306;BME280;27051;50.376;19.152;2023-04-15T05:17:39;97055.35;;;10.56;62.75
41306;BME280;27051;50.376;19.152;2023-04-15T05:20:07;97057.70;;;10.53;62.92
41306;BME280;27051;50.376;19.152;2023-04-15T05:22:33;97053.64;;;10.54;63.06
41306;BME280;27051;50.376;19.152;2023-04-15T05:25:00;97053.38;;;10.58;63.02
41306;BME280;27051;50.376;19.152;2023-04-15T05:27:26;97060.59;;;10.69;62.97
41306;BME280;27051;50.376;19.152;2023-04-15T05:29:53;97058.96;;;10.74;62.90
41306;BME280;27051;50.376;19.152;2023-04-15T05:32:19;97058.78;;;10.79;62.86
41306;BME280;27051;50.376;19.152;2023-04-15T05:34:46;97062.45;;;10.84;62.80
41306;BME280;27051;50.376;19.152;2023-04-15T05:37:13;97065.48;;;10.87;62.79
41306;BME280;27051;50.376;19.152;2023-04-15T05:39:40;97062.72;;;10.93;62.68
41306;BME280;27051;50.376;19.152;2023-04-15T05:42:06;97068.67;;;10.97;62.62
41306;BME280;27051;50.376;19.152;2023-04-15T05:44:33;97066.48;;;11.00;62.53
41306;BME280;27051;50.376;19.152;2023-04-15T05:46:59;97069.00;;;11.04;62.46
41306;BME280;27051;50.376;19.152;2023-04-15T05:49:26;97075.47;;;11.05;62.43
41306;BME280;27051;50.376;19.152;2023-04-15T05:52:02;97072.48;;;11.07;62.47
41306;BME280;27051;50.376;19.152;2023-04-15T05:54:28;97073.44;;;11.03;62.55
41306;BME280;27051;50.376;19.152;2023-04-15T05:56:55;97078.19;;;11.08;62.44
41306;BME280;27051;50.376;19.152;2023-04-15T05:59:23;97079.86;;;11.14;62.36
41306;BME280;27051;50.376;19.152;2023-04-15T06:01:49;97087.45;;;11.20;62.22
41306;BME280;27051;50.376;19.152;2023-04-15T06:04:16;97089.71;;;11.29;62.30
41306;BME280;27051;50.376;19.152;2023-04-15T06:06:42;97091.83;;;11.40;62.21
41306;BME280;27051;50.376;19.152;2023-04-15T06:09:09;97099.41;;;11.51;62.20
41306;BME280;27051;50.376;19.152;2023-04-15T06:11:36;97104.91;;;11.56;62.09
41306;BME280;27051;50.376;19.152;2023-04-15T06:14:02;97105.42;;;11.68;62.03
41306;BME280;27051;50.376;19.152;2023-04-15T06:16:29;97107.05;;;11.80;62.00
41306;BME280;27051;50.376;19.152;2023-04-15T06:18:55;97105.67;;;11.93;61.91
41306;BME280;27051;50.376;19.152;2023-04-15T06:21:22;97108.61;;;12.05;61.49
41306;BME280;27051;50.376;19.152;2023-04-15T06:23:57;97106.19;;;12.10;61.36
41306;BME280;27051;50.376;19.152;2023-04-15T06:26:24;97106.08;;;12.15;61.16
41306;BME280;27051;50.376;19.152;2023-04-15T06:28:51;97103.20;;;12.21;61.15
41306;BME280;27051;50.376;19.152;2023-04-15T06:31:18;97100.23;;;12.25;61.05
41306;BME280;27051;50.376;19.152;2023-04-15T06:33:44;97106.16;;;12.36;60.89
41306;BME280;27051;50.376;19.152;2023-04-15T06:36:11;97108.76;;;12.44;60.73
41306;BME280;27051;50.376;19.152;2023-04-15T06:38:38;97108.48;;;12.50;60.44
41306;BME280;27051;50.376;19.152;2023-04-15T06:41:05;97110.61;;;12.57;60.36
41306;BME280;27051;50.376;19.152;2023-04-15T06:43:32;97111.11;;;12.64;60.13
41306;BME280;27051;50.376;19.152;2023-04-15T06:45:59;97110.61;;;12.70;59.89
41306;BME280;27051;50.376;19.152;2023-04-15T06:48:26;97113.33;;;12.76;59.48
41306;BME280;27051;50.376;19.152;2023-04-15T06:50:54;97118.34;;;12.74;58.88
41306;BME280;27051;50.376;19.152;2023-04-15T06:53:20;97120.86;;;12.70;58.94
41306;BME280;27051;50.376;19.152;2023-04-15T06:55:47;97125.34;;;12.73;59.05
41306;BME280;27051;50.376;19.152;2023-04-15T06:58:13;97121.89;;;12.75;58.84
41306;BME280;27051;50.376;19.152;2023-04-15T07:00:40;97128.05;;;12.88;58.72
41306;BME280;27051;50.376;19.152;2023-04-15T07:03:07;97132.61;;;13.08;58.73
41306;BME280;27051;50.376;19.152;2023-04-15T07:05:33;97133.00;;;13.25;58.29
41306;BME280;27051;50.376;19.152;2023-04-15T07:08:00;97134.69;;;13.37;58.22
41306;BME280;27051;50.376;19.152;2023-04-15T07:10:26;97133.16;;;13.42;57.91
41306;BME280;27051;50.376;19.152;2023-04-15T07:12:53;97136.34;;;13.44;57.61
41306;BME280;27051;50.376;19.152;2023-04-15T07:15:19;97134.88;;;13.49;57.65
41306;BME280;27051;50.376;19.152;2023-04-15T07:17:46;97141.66;;;13.48;57.35
41306;BME280;27051;50.376;19.152;2023-04-15T07:20:12;97145.77;;;13.54;57.24
41306;BME280;27051;50.376;19.152;2023-04-15T07:22:39;97149.02;;;13.59;56.82
41306;BME280;27051;50.376;19.152;2023-04-15T07:25:06;97148.52;;;13.72;57.18
41306;BME280;27051;50.376;19.152;2023-04-15T07:27:33;97144.76;;;13.86;56.78
41306;BME280;27051;50.376;19.152;2023-04-15T07:30:03;97145.33;;;13.98;56.67
41306;BME280;27051;50.376;19.152;2023-04-15T07:32:29;97153.59;;;14.07;56.44
41306;BME280;27051;50.376;19.152;2023-04-15T07:34:56;97159.85;;;14.08;55.66
41306;BME280;27051;50.376;19.152;2023-04-15T07:37:22;97156.90;;;14.01;54.92
41306;BME280;27051;50.376;19.152;2023-04-15T07:39:49;97156.44;;;13.98;54.98
41306;BME280;27051;50.376;19.152;2023-04-15T07:42:16;97158.14;;;14.02;55.07
41306;BME280;27051;50.376;19.152;2023-04-15T07:44:42;97154.52;;;14.10;54.89
41306;BME280;27051;50.376;19.152;2023-04-15T07:47:08;97153.67;;;14.21;54.28
41306;BME280;27051;50.376;19.152;2023-04-15T07:49:35;97149.89;;;14.34;54.24
41306;BME280;27051;50.376;19.152;2023-04-15T07:52:01;97150.29;;;14.52;54.57
41306;BME280;27051;50.376;19.152;2023-04-15T07:54:28;97146.33;;;14.75;54.72
41306;BME280;27051;50.376;19.152;2023-04-15T07:56:55;97140.89;;;14.89;53.98
41306;BME280;27051;50.376;19.152;2023-04-15T07:59:22;97140.41;;;14.98;53.46
41306;BME280;27051;50.376;19.152;2023-04-15T08:01:48;97140.94;;;14.98;53.34
41306;BME280;27051;50.376;19.152;2023-04-15T08:04:15;97148.50;;;15.06;53.04
41306;BME280;27051;50.376;19.152;2023-04-15T08:06:43;97147.27;;;15.06;51.90
41306;BME280;27051;50.376;19.152;2023-04-15T08:09:10;97148.04;;;15.07;52.14
41306;BME280;27051;50.376;19.152;2023-04-15T08:11:37;97148.04;;;15.10;52.01
41306;BME280;27051;50.376;19.152;2023-04-15T08:14:04;97143.66;;;15.19;52.04
41306;BME280;27051;50.376;19.152;2023-04-15T08:16:30;97146.08;;;15.34;51.55
41306;BME280;27051;50.376;19.152;2023-04-15T08:18:56;97145.61;;;15.38;50.52
41306;BME280;27051;50.376;19.152;2023-04-15T08:21:23;97146.61;;;15.36;50.93
41306;BME280;27051;50.376;19.152;2023-04-15T08:23:51;97147.30;;;15.35;50.49
41306;BME280;27051;50.376;19.152;2023-04-15T08:26:19;97150.40;;;15.37;50.06
41306;BME280;27051;50.376;19.152;2023-04-15T08:28:46;97148.17;;;15.35;49.47
41306;BME280;27051;50.376;19.152;2023-04-15T08:31:13;97151.04;;;15.34;49.27
41306;BME280;27051;50.376;19.152;2023-04-15T08:33:41;97148.35;;;15.45;49.73
41306;BME280;27051;50.376;19.152;2023-04-15T08:36:08;97145.60;;;15.52;49.54
41306;BME280;27051;50.376;19.152;2023-04-15T08:38:34;97144.62;;;15.64;49.53
41306;BME280;27051;50.376;19.152;2023-04-15T08:41:20;97150.80;;;15.70;49.57
41306;BME280;27051;50.376;19.152;2023-04-15T08:43:59;97150.63;;;15.77;49.65
41306;BME280;27051;50.376;19.152;2023-04-15T08:46:27;97156.36;;;15.75;50.00
41306;BME280;27051;50.376;19.152;2023-04-15T08:48:57;97154.43;;;15.73;50.12
41306;BME280;27051;50.376;19.152;2023-04-15T08:51:24;97154.03;;;15.76;50.07
41306;BME280;27051;50.376;19.152;2023-04-15T08:53:52;97159.80;;;15.80;50.10
41306;BME280;27051;50.376;19.152;2023-04-15T08:56:23;97160.17;;;15.86;49.96
41306;BME280;27051;50.376;19.152;2023-04-15T08:58:50;97161.52;;;15.92;49.67
41306;BME280;27051;50.376;19.152;2023-04-15T09:01:17;97165.59;;;16.00;49.67
41306;BME280;27051;50.376;19.152;2023-04-15T09:03:44;97167.64;;;16.04;49.41
41306;BME280;27051;50.376;19.152;2023-04-15T09:06:15;97164.48;;;16.02;49.39
41306;BME280;27051;50.376;19.152;2023-04-15T09:08:42;97169.69;;;15.99;49.22
41306;BME280;27051;50.376;19.152;2023-04-15T09:11:09;97168.17;;;15.95;49.12
41306;BME280;27051;50.376;19.152;2023-04-15T09:13:36;97169.79;;;15.95;49.14
41306;BME280;27051;50.376;19.152;2023-04-15T09:16:04;97172.45;;;15.90;48.98
41306;BME280;27051;50.376;19.152;2023-04-15T09:18:35;97176.11;;;15.87;49.00
41306;BME280;27051;50.376;19.152;2023-04-15T09:21:14;97176.44;;;15.85;49.04
41306;BME280;27051;50.376;19.152;2023-04-15T09:23:53;97176.75;;;15.83;49.08
41306;BME280;27051;50.376;19.152;2023-04-15T09:26:29;97175.13;;;15.82;49.02
41306;BME280;27051;50.376;19.152;2023-04-15T09:29:03;97172.91;;;15.79;48.52
41306;BME280;27051;50.376;19.152;2023-04-15T09:31:29;97169.04;;;15.78;48.73
41306;BME280;27051;50.376;19.152;2023-04-15T09:33:56;97174.13;;;15.81;48.59
41306;BME280;27051;50.376;19.152;2023-04-15T09:36:22;97171.80;;;15.84;48.38
41306;BME280;27051;50.376;19.152;2023-04-15T09:38:56;97171.54;;;15.88;48.33
41306;BME280;27051;50.376;19.152;2023-04-15T09:41:24;97171.66;;;15.94;48.24
41306;BME280;27051;50.376;19.152;2023-04-15T09:43:51;97167.81;;;16.00;48.21
41306;BME280;27051;50.376;19.152;2023-04-15T09:46:18;97167.38;;;16.09;48.13
41306;BME280;27051;50.376;19.152;2023-04-15T09:48:44;97169.75;;;16.24;47.82
41306;BME280;27051;50.376;19.152;2023-04-15T09:51:11;97165.79;;;16.36;47.58
41306;BME280;27051;50.376;19.152;2023-04-15T09:53:37;97166.97;;;16.52;47.52
41306;BME280;27051;50.376;19.152;2023-04-15T09:56:03;97163.02;;;16.69;46.76
41306;BME280;27051;50.376;19.152;2023-04-15T09:58:32;97158.77;;;16.87;46.74
41306;BME280;27051;50.376;19.152;2023-04-15T10:00:59;97164.01;;;17.06;46.60
41306;BME280;27051;50.376;19.152;2023-04-15T10:03:32;97163.23;;;17.32;46.43
41306;BME280;27051;50.376;19.152;2023-04-15T10:06:00;97163.09;;;17.63;46.04
41306;BME280;27051;50.376;19.152;2023-04-15T10:08:28;97163.48;;;17.89;46.05
41306;BME280;27051;50.376;19.152;2023-04-15T10:10:55;97166.94;;;18.13;45.43
41306;BME280;27051;50.376;19.152;2023-04-15T10:13:25;97168.52;;;18.36;45.31
41306;BME280;27051;50.376;19.152;2023-04-15T10:16:04;97169.30;;;18.64;45.26
41306;BME280;27051;50.376;19.152;2023-04-15T10:18:34;97172.27;;;18.97;45.08
41306;BME280;27051;50.376;19.152;2023-04-15T10:21:01;97166.80;;;19.27;44.13
41306;BME280;27051;50.376;19.152;2023-04-15T10:23:27;97167.97;;;19.35;44.01
41306;BME280;27051;50.376;19.152;2023-04-15T10:25:54;97172.48;;;19.39;43.72
41306;BME280;27051;50.376;19.152;2023-04-15T10:28:22;97174.16;;;19.52;43.72
41306;BME280;27051;50.376;19.152;2023-04-15T10:30:49;97173.93;;;19.63;42.74
41306;BME280;27051;50.376;19.152;2023-04-15T10:33:19;97172.09;;;19.66;43.03
41306;BME280;27051;50.376;19.152;2023-04-15T10:35:47;97169.83;;;19.67;41.50
41306;BME280;27051;50.376;19.152;2023-04-15T10:38:38;97176.45;;;19.58;41.97
41306;BME280;27051;50.376;19.152;2023-04-15T10:41:24;97174.84;;;19.50;42.37
41306;BME280;27051;50.376;19.152;2023-04-15T10:44:02;97173.78;;;19.51;42.22
41306;BME280;27051;50.376;19.152;2023-04-15T10:46:40;97176.21;;;19.47;41.62
41306;BME280;27051;50.376;19.152;2023-04-15T10:51:38;97179.08;;;19.40;41.61
41306;BME280;27051;50.376;19.152;2023-04-15T10:54:08;97178.77;;;19.40;41.43
41306;BME280;27051;50.376;19.152;2023-04-15T10:56:41;97174.55;;;19.48;41.90
41306;BME280;27051;50.376;19.152;2023-04-15T10:59:08;97172.70;;;19.55;41.59
41306;BME280;27051;50.376;19.152;2023-04-15T11:01:55;97176.95;;;19.53;41.51
41306;BME280;27051;50.376;19.152;2023-04-15T11:04:50;97175.08;;;19.42;41.09
41306;BME280;27051;50.376;19.152;2023-04-15T11:07:55;97173.75;;;19.26;41.16
41306;BME280;27051;50.376;19.152;2023-04-15T11:12:53;97174.96;;;18.99;41.33
41306;BME280;27051;50.376;19.152;2023-04-15T11:15:28;97173.25;;;18.94;41.62
41306;BME280;27051;50.376;19.152;2023-04-15T11:17:55;97174.08;;;19.00;41.40
41306;BME280;27051;50.376;19.152;2023-04-15T11:20:23;97171.23;;;19.19;41.26
41306;BME280;27051;50.376;19.152;2023-04-15T11:22:51;97172.65;;;19.58;40.70
41306;BME280;27051;50.376;19.152;2023-04-15T11:25:23;97174.13;;;19.96;40.57
41306;BME280;27051;50.376;19.152;2023-04-15T11:27:49;97173.73;;;20.38;40.22
41306;BME280;27051;50.376;19.152;2023-04-15T11:30:18;97174.18;;;20.77;39.80
41306;BME280;27051;50.376;19.152;2023-04-15T11:32:45;97169.94;;;21.05;39.32
41306;BME280;27051;50.376;19.152;2023-04-15T11:35:11;97170.12;;;21.27;39.34
41306;BME280;27051;50.376;19.152;2023-04-15T11:37:38;97167.83;;;21.58;39.20
41306;BME280;27051;50.376;19.152;2023-04-15T11:40:05;97169.48;;;21.84;38.19
41306;BME280;27051;50.376;19.152;2023-04-15T11:42:34;97168.30;;;21.92;38.19
41306;BME280;27051;50.376;19.152;2023-04-15T11:45:12;97172.72;;;21.77;38.08
41306;BME280;27051;50.376;19.152;2023-04-15T11:47:41;97174.23;;;21.46;38.09
41306;BME280;27051;50.376;19.152;2023-04-15T11:50:18;97174.50;;;21.18;38.07
41306;BME280;27051;50.376;19.152;2023-04-15T11:53:01;97177.15;;;20.95;38.05
41306;BME280;27051;50.376;19.152;2023-04-15T11:55:29;97177.19;;;20.78;38.04
41306;BME280;27051;50.376;19.152;2023-04-15T11:58:16;97172.23;;;20.77;38.02
41306;BME280;27051;50.376;19.152;2023-04-15T12:00:53;97176.36;;;21.13;37.63
41306;BME280;27051;50.376;19.152;2023-04-15T12:03:25;97175.15;;;21.95;36.89
41306;BME280;27051;50.376;19.152;2023-04-15T12:11:50;97180.48;;;23.63;35.54
41306;BME280;27051;50.376;19.152;2023-04-15T12:14:30;97179.39;;;23.26;35.57
41306;BME280;27051;50.376;19.152;2023-04-15T12:19:27;97177.69;;;22.67;35.69
41306;BME280;27051;50.376;19.152;2023-04-15T12:22:11;97179.39;;;22.89;35.02
41306;BME280;27051;50.376;19.152;2023-04-15T12:24:39;97180.39;;;23.83;33.46
41306;BME280;27051;50.376;19.152;2023-04-15T12:27:07;97181.17;;;24.00;33.78
41306;BME280;27051;50.376;19.152;2023-04-15T12:29:35;97182.71;;;24.09;33.57
41306;BME280;27051;50.376;19.152;2023-04-15T12:32:08;97179.00;;;23.85;33.69
41306;BME280;27051;50.376;19.152;2023-04-15T12:34:37;97183.90;;;23.33;33.11
41306;BME280;27051;50.376;19.152;2023-04-15T12:37:14;97182.02;;;22.81;33.17
41306;BME280;27051;50.376;19.152;2023-04-15T12:39:49;97183.24;;;22.38;33.80
41306;BME280;27051;50.376;19.152;2023-04-15T12:42:16;97182.71;;;22.14;34.07
41306;BME280;27051;50.376;19.152;2023-04-15T12:44:43;97185.68;;;22.11;33.70
41306;BME280;27051;50.376;19.152;2023-04-15T12:47:10;97184.38;;;22.19;33.06
41306;BME280;27051;50.376;19.152;2023-04-15T12:49:37;97188.37;;;22.16;32.86
41306;BME280;27051;50.376;19.152;2023-04-15T12:52:04;97184.80;;;22.36;33.19
41306;BME280;27051;50.376;19.152;2023-04-15T12:54:31;97182.27;;;22.51;32.88
41306;BME280;27051;50.376;19.152;2023-04-15T12:56:58;97180.83;;;22.67;32.61
41306;BME280;27051;50.376;19.152;2023-04-15T12:59:25;97183.34;;;22.83;32.30
41306;BME280;27051;50.376;19.152;2023-04-15T13:01:52;97180.41;;;23.43;32.29
41306;BME280;27051;50.376;19.152;2023-04-15T13:04:19;97172.37;;;25.42;31.00
41306;BME280;27051;50.376;19.152;2023-04-15T13:06:46;97172.90;;;26.04;30.10
41306;BME280;27051;50.376;19.152;2023-04-15T13:09:12;97169.65;;;26.11;29.79